sensor_id;sensor_type;location;lat;lon;timestamp;P1;durP1;ratioP1;P2;durP2;ratioP2
44989;SDS011;30723;51.206;3.326;2023-03-01T00:00:40;15.57;;;9.15;;
44989;SDS011;30723;51.206;3.326;2023-03-01T00:03:11;14.77;;;9.52;;
44989;SDS011;30723;51.206;3.326;2023-03-01T00:05:47;13.55;;;8.68;;
44989;SDS011;30723;51.206;3.326;2023-03-01T00:08:24;14.07;;;8.75;;
44989;SDS011;30723;51.206;3.326;2023-03-01T00:10:59;13.57;;;9.32;;
44989;SDS011;30723;51.206;3.326;2023-03-01T00:13:30;14.38;;;9.73;;
44989;SDS011;30723;51.206;3.326;2023-03-01T00:15:56;16.13;;;9.55;;
44989;SDS011;30723;51.206;3.326;2023-03-01T00:18:23;14.15;;;9.43;;
44989;SDS011;30723;51.206;3.326;2023-03-01T00:20:53;14.80;;;10.75;;
44989;SDS011;30723;51.206;3.326;2023-03-01T00:23:36;13.70;;;9.45;;
44989;SDS011;30723;51.206;3.326;2023-03-01T00:26:07;15.48;;;10.43;;
44989;SDS011;30723;51.206;3.326;2023-03-01T00:28:35;22.27;;;10.88;;
44989;SDS011;30723;51.206;3.326;2023-03-01T00:33:35;18.65;;;10.68;;
44989;SDS011;30723;51.206;3.326;2023-03-01T00:36:05;15.52;;;11.20;;
44989;SDS011;30723;51.206;3.326;2023-03-01T00:38:34;20.83;;;10.85;;
44989;SDS011;30723;51.206;3.326;2023-03-01T00:41:07;15.32;;;11.93;;
44989;SDS011;30723;51.206;3.326;2023-03-01T00:43:34;16.00;;;11.05;;
44989;SDS011;30723;51.206;3.326;2023-03-01T00:46:05;15.65;;;11.75;;
44989;SDS011;30723;51.206;3.326;2023-03-01T00:48:35;19.10;;;11.95;;
44989;SDS011;30723;51.206;3.326;2023-03-01T00:51:06;17.98;;;11.50;;
44989;SDS011;30723;51.206;3.326;2023-03-01T00:54:09;16.48;;;11.82;;
44989;SDS011;30723;51.206;3.326;2023-03-01T00:56:52;17.83;;;12.30;;
44989;SDS011;30723;51.206;3.326;2023-03-01T00:59:17;17.52;;;12.63;;
44989;SDS011;30723;51.206;3.326;2023-03-01T01:01:43;17.80;;;12.90;;
44989;SDS011;30723;51.206;3.326;2023-03-01T01:04:11;21.58;;;13.52;;
44989;SDS011;30723;51.206;3.326;2023-03-01T01:09:09;24.07;;;13.27;;
44989;SDS011;30723;51.206;3.326;2023-03-01T01:11:41;21.80;;;12.95;;
44989;SDS011;30723;51.206;3.326;2023-03-01T01:14:08;19.02;;;13.43;;
44989;SDS011;30723;51.206;3.326;2023-03-01T01:16:34;20.20;;;13.52;;
44989;SDS011;30723;51.206;3.326;2023-03-01T01:19:01;17.38;;;13.18;;
44989;SDS011;30723;51.206;3.326;2023-03-01T01:21:27;18.92;;;13.82;;
44989;SDS011;30723;51.206;3.326;2023-03-01T01:23:54;18.67;;;13.52;;
44989;SDS011;30723;51.206;3.326;2023-03-01T01:26:23;19.85;;;13.55;;
44989;SDS011;30723;51.206;3.326;2023-03-01T01:28:52;21.08;;;14.63;;
44989;SDS011;30723;51.206;3.326;2023-03-01T01:31:19;21.10;;;14.13;;
44989;SDS011;30723;51.206;3.326;2023-03-01T01:33:45;21.55;;;13.75;;
44989;SDS011;30723;51.206;3.326;2023-03-01T01:36:12;19.85;;;14.32;;
44989;SDS011;30723;51.206;3.326;2023-03-01T01:38:39;20.67;;;14.50;;
44989;SDS011;30723;51.206;3.326;2023-03-01T01:41:07;23.73;;;15.05;;
44989;SDS011;30723;51.206;3.326;2023-03-01T01:46:12;20.38;;;14.00;;
44989;SDS011;30723;51.206;3.326;2023-03-01T01:49:25;21.90;;;14.98;;
44989;SDS011;30723;51.206;3.326;2023-03-01T01:52:16;19.58;;;14.65;;
44989;SDS011;30723;51.206;3.326;2023-03-01T01:54:57;22.90;;;15.73;;
44989;SDS011;30723;51.206;3.326;2023-03-01T01:57:36;23.75;;;15.88;;
44989;SDS011;30723;51.206;3.326;2023-03-01T02:00:12;21.73;;;15.10;;
44989;SDS011;30723;51.206;3.326;2023-03-01T02:02:44;23.52;;;15.90;;
44989;SDS011;30723;51.206;3.326;2023-03-01T02:05:18;26.73;;;15.82;;
44989;SDS011;30723;51.206;3.326;2023-03-01T02:08:02;26.67;;;15.77;;
44989;SDS011;30723;51.206;3.326;2023-03-01T02:10:29;23.20;;;15.80;;
44989;SDS011;30723;51.206;3.326;2023-03-01T02:13:01;24.52;;;16.35;;
44989;SDS011;30723;51.206;3.326;2023-03-01T02:15:31;24.15;;;15.38;;
44989;SDS011;30723;51.206;3.326;2023-03-01T02:17:59;22.58;;;15.82;;
44989;SDS011;30723;51.206;3.326;2023-03-01T02:20:43;22.10;;;15.40;;
44989;SDS011;30723;51.206;3.326;2023-03-01T02:23:22;24.63;;;16.33;;
44989;SDS011;30723;51.206;3.326;2023-03-01T02:28:31;27.17;;;17.23;;
44989;SDS011;30723;51.206;3.326;2023-03-01T02:31:00;27.30;;;18.35;;
44989;SDS011;30723;51.206;3.326;2023-03-01T02:33:45;26.67;;;17.52;;
44989;SDS011;30723;51.206;3.326;2023-03-01T02:36:20;25.95;;;16.95;;
44989;SDS011;30723;51.206;3.326;2023-03-01T02:41:34;24.30;;;16.45;;
44989;SDS011;30723;51.206;3.326;2023-03-01T02:46:29;23.02;;;15.52;;
44989;SDS011;30723;51.206;3.326;2023-03-01T02:48:56;24.25;;;16.17;;
44989;SDS011;30723;51.206;3.326;2023-03-01T02:54:28;27.92;;;17.45;;
44989;SDS011;30723;51.206;3.326;2023-03-01T02:57:05;26.02;;;16.92;;
44989;SDS011;30723;51.206;3.326;2023-03-01T02:59:33;31.58;;;18.40;;
44989;SDS011;30723;51.206;3.326;2023-03-01T03:02:04;27.95;;;18.23;;
44989;SDS011;30723;51.206;3.326;2023-03-01T03:04:31;27.83;;;17.55;;
44989;SDS011;30723;51.206;3.326;2023-03-01T03:06:57;27.13;;;17.88;;
44989;SDS011;30723;51.206;3.326;2023-03-01T03:09:23;26.10;;;17.80;;
44989;SDS011;30723;51.206;3.326;2023-03-01T03:11:50;27.38;;;17.88;;
44989;SDS011;30723;51.206;3.326;2023-03-01T03:14:16;27.35;;;18.48;;
44989;SDS011;30723;51.206;3.326;2023-03-01T03:16:43;28.73;;;18.33;;
44989;SDS011;30723;51.206;3.326;2023-03-01T03:19:11;28.98;;;18.38;;
44989;SDS011;30723;51.206;3.326;2023-03-01T03:21:39;30.77;;;18.90;;
44989;SDS011;30723;51.206;3.326;2023-03-01T03:24:05;28.52;;;18.88;;
44989;SDS011;30723;51.206;3.326;2023-03-01T03:26:31;31.30;;;18.98;;
44989;SDS011;30723;51.206;3.326;2023-03-01T03:28:57;29.25;;;18.70;;
44989;SDS011;30723;51.206;3.326;2023-03-01T03:31:23;33.50;;;18.30;;
44989;SDS011;30723;51.206;3.326;2023-03-01T03:33:48;31.90;;;18.90;;
44989;SDS011;30723;51.206;3.326;2023-03-01T03:36:15;33.83;;;19.48;;
44989;SDS011;30723;51.206;3.326;2023-03-01T03:38:43;31.10;;;18.02;;
44989;SDS011;30723;51.206;3.326;2023-03-01T03:41:11;33.20;;;19.30;;
44989;SDS011;30723;51.206;3.326;2023-03-01T03:43:39;30.85;;;18.83;;
44989;SDS011;30723;51.206;3.326;2023-03-01T03:46:07;29.27;;;18.00;;
44989;SDS011;30723;51.206;3.326;2023-03-01T03:48:36;32.85;;;18.85;;
44989;SDS011;30723;51.206;3.326;2023-03-01T03:51:05;29.55;;;17.80;;
44989;SDS011;30723;51.206;3.326;2023-03-01T03:53:34;31.70;;;18.45;;
44989;SDS011;30723;51.206;3.326;2023-03-01T03:56:00;27.13;;;17.70;;
44989;SDS011;30723;51.206;3.326;2023-03-01T03:58:27;33.70;;;19.20;;
44989;SDS011;30723;51.206;3.326;2023-03-01T04:00:55;30.40;;;18.67;;
44989;SDS011;30723;51.206;3.326;2023-03-01T04:03:22;30.95;;;18.45;;
44989;SDS011;30723;51.206;3.326;2023-03-01T04:05:49;36.28;;;18.58;;
44989;SDS011;30723;51.206;3.326;2023-03-01T04:08:17;29.25;;;18.02;;
44989;SDS011;30723;51.206;3.326;2023-03-01T04:10:46;30.02;;;18.63;;
44989;SDS011;30723;51.206;3.326;2023-03-01T04:13:19;32.30;;;19.85;;
44989;SDS011;30723;51.206;3.326;2023-03-01T04:15:49;30.55;;;17.60;;
44989;SDS011;30723;51.206;3.326;2023-03-01T04:18:17;33.95;;;18.98;;
44989;SDS011;30723;51.206;3.326;2023-03-01T04:20:45;32.03;;;18.33;;
44989;SDS011;30723;51.206;3.326;2023-03-01T04:23:13;30.98;;;18.77;;
44989;SDS011;30723;51.206;3.326;2023-03-01T04:25:46;32.78;;;19.15;;
44989;SDS011;30723;51.206;3.326;2023-03-01T04:30:50;37.93;;;19.17;;
44989;SDS011;30723;51.206;3.326;2023-03-01T04:33:18;28.88;;;18.65;;
44989;SDS011;30723;51.206;3.326;2023-03-01T04:35:44;34.03;;;19.75;;
44989;SDS011;30723;51.206;3.326;2023-03-01T04:38:10;29.25;;;18.15;;
44989;SDS011;30723;51.206;3.326;2023-03-01T04:40:35;32.03;;;20.10;;
44989;SDS011;30723;51.206;3.326;2023-03-01T04:43:02;28.98;;;18.27;;
44989;SDS011;30723;51.206;3.326;2023-03-01T04:45:31;34.45;;;20.15;;
44989;SDS011;30723;51.206;3.326;2023-03-01T04:47:59;30.85;;;19.08;;
44989;SDS011;30723;51.206;3.326;2023-03-01T04:50:26;32.88;;;20.52;;
44989;SDS011;30723;51.206;3.326;2023-03-01T04:52:52;32.67;;;19.88;;
44989;SDS011;30723;51.206;3.326;2023-03-01T04:55:18;31.05;;;19.50;;
44989;SDS011;30723;51.206;3.326;2023-03-01T04:57:45;30.15;;;19.48;;
44989;SDS011;30723;51.206;3.326;2023-03-01T05:00:12;31.48;;;19.80;;
44989;SDS011;30723;51.206;3.326;2023-03-01T05:02:56;34.53;;;20.30;;
44989;SDS011;30723;51.206;3.326;2023-03-01T05:05:36;37.83;;;20.20;;
44989;SDS011;30723;51.206;3.326;2023-03-01T05:08:14;30.23;;;19.30;;
44989;SDS011;30723;51.206;3.326;2023-03-01T05:10:43;32.70;;;20.48;;
44989;SDS011;30723;51.206;3.326;2023-03-01T05:13:11;27.75;;;18.30;;
44989;SDS011;30723;51.206;3.326;2023-03-01T05:15:40;29.63;;;18.88;;
44989;SDS011;30723;51.206;3.326;2023-03-01T05:18:07;31.42;;;19.58;;
44989;SDS011;30723;51.206;3.326;2023-03-01T05:20:36;39.53;;;20.45;;
44989;SDS011;30723;51.206;3.326;2023-03-01T05:23:03;31.35;;;19.02;;
44989;SDS011;30723;51.206;3.326;2023-03-01T05:25:30;30.67;;;19.83;;
44989;SDS011;30723;51.206;3.326;2023-03-01T05:28:02;33.35;;;19.67;;
44989;SDS011;30723;51.206;3.326;2023-03-01T05:30:33;33.58;;;21.23;;
44989;SDS011;30723;51.206;3.326;2023-03-01T05:32:59;33.53;;;20.77;;
44989;SDS011;30723;51.206;3.326;2023-03-01T05:35:27;36.75;;;20.30;;
44989;SDS011;30723;51.206;3.326;2023-03-01T05:37:54;35.38;;;18.75;;
44989;SDS011;30723;51.206;3.326;2023-03-01T05:40:22;30.88;;;19.83;;
44989;SDS011;30723;51.206;3.326;2023-03-01T05:42:52;30.05;;;19.50;;
44989;SDS011;30723;51.206;3.326;2023-03-01T05:45:36;32.10;;;19.23;;
44989;SDS011;30723;51.206;3.326;2023-03-01T05:48:03;31.52;;;20.10;;
44989;SDS011;30723;51.206;3.326;2023-03-01T05:50:33;29.17;;;18.92;;
44989;SDS011;30723;51.206;3.326;2023-03-01T05:53:02;31.67;;;19.67;;
44989;SDS011;30723;51.206;3.326;2023-03-01T05:55:33;35.92;;;20.45;;
44989;SDS011;30723;51.206;3.326;2023-03-01T05:58:00;30.60;;;18.80;;
44989;SDS011;30723;51.206;3.326;2023-03-01T06:00:28;33.20;;;19.42;;
44989;SDS011;30723;51.206;3.326;2023-03-01T06:02:55;31.05;;;19.42;;
44989;SDS011;30723;51.206;3.326;2023-03-01T06:05:23;30.73;;;18.90;;
44989;SDS011;30723;51.206;3.326;2023-03-01T06:07:49;32.33;;;18.35;;
44989;SDS011;30723;51.206;3.326;2023-03-01T06:10:16;35.05;;;19.38;;
44989;SDS011;30723;51.206;3.326;2023-03-01T06:12:42;29.17;;;18.33;;
44989;SDS011;30723;51.206;3.326;2023-03-01T06:15:09;31.42;;;18.83;;
44989;SDS011;30723;51.206;3.326;2023-03-01T06:17:39;32.38;;;20.08;;
44989;SDS011;30723;51.206;3.326;2023-03-01T06:20:08;32.55;;;17.92;;
44989;SDS011;30723;51.206;3.326;2023-03-01T06:22:37;30.63;;;18.00;;
44989;SDS011;30723;51.206;3.326;2023-03-01T06:25:06;33.75;;;17.73;;
44989;SDS011;30723;51.206;3.326;2023-03-01T06:27:34;32.50;;;18.42;;
44989;SDS011;30723;51.206;3.326;2023-03-01T06:30:00;30.30;;;18.38;;
44989;SDS011;30723;51.206;3.326;2023-03-01T06:32:28;34.35;;;18.10;;
44989;SDS011;30723;51.206;3.326;2023-03-01T06:34:56;33.88;;;18.00;;
44989;SDS011;30723;51.206;3.326;2023-03-01T06:37:24;28.00;;;17.60;;
44989;SDS011;30723;51.206;3.326;2023-03-01T06:39:50;28.92;;;17.13;;
44989;SDS011;30723;51.206;3.326;2023-03-01T06:42:16;29.30;;;16.77;;
44989;SDS011;30723;51.206;3.326;2023-03-01T06:44:42;28.00;;;16.33;;
44989;SDS011;30723;51.206;3.326;2023-03-01T06:47:08;28.15;;;17.40;;
44989;SDS011;30723;51.206;3.326;2023-03-01T06:49:34;27.88;;;16.40;;
44989;SDS011;30723;51.206;3.326;2023-03-01T06:52:01;26.60;;;15.82;;
44989;SDS011;30723;51.206;3.326;2023-03-01T06:54:28;25.77;;;15.75;;
44989;SDS011;30723;51.206;3.326;2023-03-01T06:56:53;25.42;;;15.60;;
44989;SDS011;30723;51.206;3.326;2023-03-01T06:59:20;27.13;;;16.23;;
44989;SDS011;30723;51.206;3.326;2023-03-01T07:01:46;28.33;;;16.45;;
44989;SDS011;30723;51.206;3.326;2023-03-01T07:04:13;22.55;;;13.93;;
44989;SDS011;30723;51.206;3.326;2023-03-01T07:06:40;25.88;;;15.10;;
44989;SDS011;30723;51.206;3.326;2023-03-01T07:09:07;23.27;;;13.27;;
44989;SDS011;30723;51.206;3.326;2023-03-01T07:11:33;24.70;;;14.35;;
44989;SDS011;30723;51.206;3.326;2023-03-01T07:14:00;19.00;;;12.20;;
44989;SDS011;30723;51.206;3.326;2023-03-01T07:16:27;20.52;;;11.75;;
44989;SDS011;30723;51.206;3.326;2023-03-01T07:18:52;18.73;;;10.82;;
44989;SDS011;30723;51.206;3.326;2023-03-01T07:21:19;19.10;;;10.88;;
44989;SDS011;30723;51.206;3.326;2023-03-01T07:23:47;22.63;;;10.25;;
44989;SDS011;30723;51.206;3.326;2023-03-01T07:26:14;16.42;;;10.98;;
44989;SDS011;30723;51.206;3.326;2023-03-01T07:28:40;17.27;;;10.65;;
44989;SDS011;30723;51.206;3.326;2023-03-01T07:31:06;19.17;;;10.63;;
44989;SDS011;30723;51.206;3.326;2023-03-01T07:33:32;17.50;;;10.23;;
44989;SDS011;30723;51.206;3.326;2023-03-01T07:35:59;15.18;;;9.38;;
44989;SDS011;30723;51.206;3.326;2023-03-01T07:38:27;14.00;;;9.15;;
44989;SDS011;30723;51.206;3.326;2023-03-01T07:40:57;17.58;;;10.15;;
44989;SDS011;30723;51.206;3.326;2023-03-01T07:43:27;16.42;;;8.73;;
44989;SDS011;30723;51.206;3.326;2023-03-01T07:46:02;14.70;;;9.50;;
44989;SDS011;30723;51.206;3.326;2023-03-01T07:48:29;13.68;;;8.57;;
44989;SDS011;30723;51.206;3.326;2023-03-01T07:50:57;12.35;;;8.55;;
44989;SDS011;30723;51.206;3.326;2023-03-01T07:53:28;15.70;;;8.40;;
44989;SDS011;30723;51.206;3.326;2023-03-01T07:56:03;14.68;;;8.70;;
44989;SDS011;30723;51.206;3.326;2023-03-01T07:58:34;12.10;;;7.47;;
44989;SDS011;30723;51.206;3.326;2023-03-01T08:01:05;12.30;;;7.35;;
44989;SDS011;30723;51.206;3.326;2023-03-01T08:03:33;11.30;;;7.30;;
44989;SDS011;30723;51.206;3.326;2023-03-01T08:06:05;16.60;;;7.13;;
44989;SDS011;30723;51.206;3.326;2023-03-01T08:10:58;10.63;;;6.45;;
44989;SDS011;30723;51.206;3.326;2023-03-01T08:13:26;10.25;;;6.32;;
44989;SDS011;30723;51.206;3.326;2023-03-01T08:15:52;12.77;;;6.57;;
44989;SDS011;30723;51.206;3.326;2023-03-01T08:18:20;12.38;;;5.68;;
44989;SDS011;30723;51.206;3.326;2023-03-01T08:20:47;8.43;;;5.63;;
44989;SDS011;30723;51.206;3.326;2023-03-01T08:23:13;9.38;;;6.45;;
44989;SDS011;30723;51.206;3.326;2023-03-01T08:25:38;10.45;;;6.80;;
44989;SDS011;30723;51.206;3.326;2023-03-01T08:28:04;9.02;;;6.32;;
44989;SDS011;30723;51.206;3.326;2023-03-01T08:30:30;10.68;;;6.22;;
44989;SDS011;30723;51.206;3.326;2023-03-01T08:32:56;8.82;;;6.00;;
44989;SDS011;30723;51.206;3.326;2023-03-01T08:35:22;10.68;;;6.03;;
44989;SDS011;30723;51.206;3.326;2023-03-01T08:37:49;9.85;;;5.97;;
44989;SDS011;30723;51.206;3.326;2023-03-01T08:40:16;12.75;;;6.20;;
44989;SDS011;30723;51.206;3.326;2023-03-01T08:42:42;8.48;;;5.78;;
44989;SDS011;30723;51.206;3.326;2023-03-01T08:45:09;10.13;;;6.00;;
44989;SDS011;30723;51.206;3.326;2023-03-01T08:47:35;9.32;;;5.55;;
44989;SDS011;30723;51.206;3.326;2023-03-01T08:50:02;11.43;;;6.40;;
44989;SDS011;30723;51.206;3.326;2023-03-01T08:52:31;11.05;;;5.90;;
44989;SDS011;30723;51.206;3.326;2023-03-01T08:54:58;8.93;;;5.85;;
44989;SDS011;30723;51.206;3.326;2023-03-01T08:57:23;10.23;;;5.68;;
44989;SDS011;30723;51.206;3.326;2023-03-01T08:59:49;10.02;;;5.90;;
44989;SDS011;30723;51.206;3.326;2023-03-01T09:02:16;10.00;;;5.93;;
44989;SDS011;30723;51.206;3.326;2023-03-01T09:04:43;7.97;;;5.35;;
44989;SDS011;30723;51.206;3.326;2023-03-01T09:07:09;8.55;;;5.43;;
44989;SDS011;30723;51.206;3.326;2023-03-01T09:09:39;8.60;;;5.47;;
44989;SDS011;30723;51.206;3.326;2023-03-01T09:12:05;8.38;;;5.47;;
44989;SDS011;30723;51.206;3.326;2023-03-01T09:14:32;7.15;;;5.75;;
44989;SDS011;30723;51.206;3.326;2023-03-01T09:16:59;7.50;;;4.93;;
44989;SDS011;30723;51.206;3.326;2023-03-01T09:19:28;8.23;;;5.90;;
44989;SDS011;30723;51.206;3.326;2023-03-01T09:21:54;8.75;;;5.57;;
44989;SDS011;30723;51.206;3.326;2023-03-01T09:24:21;7.20;;;5.55;;
44989;SDS011;30723;51.206;3.326;2023-03-01T09:26:48;7.13;;;5.20;;
44989;SDS011;30723;51.206;3.326;2023-03-01T09:29:15;11.23;;;6.22;;
44989;SDS011;30723;51.206;3.326;2023-03-01T09:31:41;8.20;;;5.60;;
44989;SDS011;30723;51.206;3.326;2023-03-01T09:34:08;9.90;;;5.97;;
44989;SDS011;30723;51.206;3.326;2023-03-01T09:36:35;8.38;;;5.25;;
44989;SDS011;30723;51.206;3.326;2023-03-01T09:39:02;6.85;;;4.80;;
44989;SDS011;30723;51.206;3.326;2023-03-01T09:41:38;7.85;;;5.07;;
44989;SDS011;30723;51.206;3.326;2023-03-01T09:46:57;8.70;;;5.70;;
44989;SDS011;30723;51.206;3.326;2023-03-01T09:49:28;7.75;;;4.80;;
44989;SDS011;30723;51.206;3.326;2023-03-01T09:54:49;8.13;;;5.20;;
44989;SDS011;30723;51.206;3.326;2023-03-01T09:57:24;7.75;;;5.22;;
44989;SDS011;30723;51.206;3.326;2023-03-01T10:05:43;7.97;;;5.10;;
44989;SDS011;30723;51.206;3.326;2023-03-01T10:08:26;8.38;;;4.78;;
44989;SDS011;30723;51.206;3.326;2023-03-01T10:11:23;6.82;;;4.22;;
44989;SDS011;30723;51.206;3.326;2023-03-01T10:14:30;8.20;;;4.63;;
44989;SDS011;30723;51.206;3.326;2023-03-01T10:17:15;7.88;;;5.18;;
44989;SDS011;30723;51.206;3.326;2023-03-01T10:22:51;6.53;;;4.80;;
44989;SDS011;30723;51.206;3.326;2023-03-01T10:30:53;6.43;;;4.53;;
44989;SDS011;30723;51.206;3.326;2023-03-01T10:35:56;5.75;;;3.65;;
44989;SDS011;30723;51.206;3.326;2023-03-01T10:38:21;8.73;;;4.00;;
44989;SDS011;30723;51.206;3.326;2023-03-01T10:43:27;10.07;;;4.57;;
44989;SDS011;30723;51.206;3.326;2023-03-01T10:46:28;5.75;;;4.40;;
44989;SDS011;30723;51.206;3.326;2023-03-01T10:49:16;5.68;;;3.58;;
44989;SDS011;30723;51.206;3.326;2023-03-01T10:51:47;5.80;;;3.97;;
44989;SDS011;30723;51.206;3.326;2023-03-01T10:54:20;10.55;;;4.22;;
44989;SDS011;30723;51.206;3.326;2023-03-01T10:57:01;6.45;;;3.63;;
44989;SDS011;30723;51.206;3.326;2023-03-01T11:02:47;4.82;;;3.72;;
44989;SDS011;30723;51.206;3.326;2023-03-01T11:05:31;5.43;;;3.67;;
44989;SDS011;30723;51.206;3.326;2023-03-01T11:07:59;4.03;;;3.63;;
44989;SDS011;30723;51.206;3.326;2023-03-01T11:12:53;4.07;;;3.33;;
44989;SDS011;30723;51.206;3.326;2023-03-01T11:15:41;4.53;;;3.60;;
44989;SDS011;30723;51.206;3.326;2023-03-01T11:18:30;4.53;;;3.53;;
44989;SDS011;30723;51.206;3.326;2023-03-01T11:20:56;4.95;;;3.90;;
44989;SDS011;30723;51.206;3.326;2023-03-01T11:23:25;5.75;;;4.20;;
44989;SDS011;30723;51.206;3.326;2023-03-01T11:25:56;4.85;;;4.10;;
44989;SDS011;30723;51.206;3.326;2023-03-01T11:28:32;4.85;;;3.60;;
44989;SDS011;30723;51.206;3.326;2023-03-01T11:31:11;5.77;;;4.10;;
44989;SDS011;30723;51.206;3.326;2023-03-01T11:33:53;5.68;;;4.30;;
44989;SDS011;30723;51.206;3.326;2023-03-01T11:36:55;5.72;;;4.35;;
44989;SDS011;30723;51.206;3.326;2023-03-01T11:42:28;6.55;;;4.13;;
44989;SDS011;30723;51.206;3.326;2023-03-01T11:45:11;6.55;;;4.25;;
44989;SDS011;30723;51.206;3.326;2023-03-01T11:50:48;5.45;;;4.45;;
44989;SDS011;30723;51.206;3.326;2023-03-01T11:53:48;6.22;;;4.38;;
44989;SDS011;30723;51.206;3.326;2023-03-01T12:07:32;7.00;;;4.90;;
44989;SDS011;30723;51.206;3.326;2023-03-01T12:15:39;6.72;;;4.55;;
44989;SDS011;30723;51.206;3.326;2023-03-01T12:26:51;6.53;;;4.88;;
44989;SDS011;30723;51.206;3.326;2023-03-01T12:43:44;8.20;;;4.70;;
44989;SDS011;30723;51.206;3.326;2023-03-01T12:49:28;7.85;;;4.50;;
44989;SDS011;30723;51.206;3.326;2023-03-01T12:54:26;7.70;;;5.28;;
44989;SDS011;30723;51.206;3.326;2023-03-01T12:57:10;7.45;;;4.75;;
44989;SDS011;30723;51.206;3.326;2023-03-01T13:02:35;7.47;;;5.38;;
44989;SDS011;30723;51.206;3.326;2023-03-01T13:08:16;5.32;;;4.57;;
44989;SDS011;30723;51.206;3.326;2023-03-01T13:10:50;7.93;;;5.10;;
44989;SDS011;30723;51.206;3.326;2023-03-01T13:14:18;8.30;;;5.03;;
44989;SDS011;30723;51.206;3.326;2023-03-01T13:16:46;8.43;;;5.40;;
44989;SDS011;30723;51.206;3.326;2023-03-01T13:21:46;9.70;;;4.93;;
44989;SDS011;30723;51.206;3.326;2023-03-01T13:24:50;6.32;;;4.80;;
44989;SDS011;30723;51.206;3.326;2023-03-01T13:27:38;10.15;;;4.88;;
44989;SDS011;30723;51.206;3.326;2023-03-01T13:30:51;7.82;;;4.78;;
44989;SDS011;30723;51.206;3.326;2023-03-01T13:35:51;7.00;;;5.53;;
44989;SDS011;30723;51.206;3.326;2023-03-01T13:39:00;7.38;;;5.13;;
44989;SDS011;30723;51.206;3.326;2023-03-01T13:46:58;7.47;;;5.15;;
44989;SDS011;30723;51.206;3.326;2023-03-01T13:49:29;7.18;;;5.07;;
44989;SDS011;30723;51.206;3.326;2023-03-01T13:52:34;6.93;;;5.63;;
44989;SDS011;30723;51.206;3.326;2023-03-01T13:55:46;6.50;;;4.90;;
44989;SDS011;30723;51.206;3.326;2023-03-01T14:01:21;5.78;;;5.05;;
44989;SDS011;30723;51.206;3.326;2023-03-01T14:03:52;7.97;;;5.07;;
44989;SDS011;30723;51.206;3.326;2023-03-01T14:06:52;6.68;;;4.68;;
44989;SDS011;30723;51.206;3.326;2023-03-01T14:09:43;8.80;;;4.90;;
44989;SDS011;30723;51.206;3.326;2023-03-01T14:12:30;6.60;;;4.70;;
44989;SDS011;30723;51.206;3.326;2023-03-01T14:20:38;7.75;;;5.60;;
44989;SDS011;30723;51.206;3.326;2023-03-01T14:23:13;6.68;;;4.95;;
44989;SDS011;30723;51.206;3.326;2023-03-01T14:25:47;7.28;;;4.93;;
44989;SDS011;30723;51.206;3.326;2023-03-01T14:28:17;6.90;;;4.78;;
44989;SDS011;30723;51.206;3.326;2023-03-01T14:30:49;6.57;;;4.40;;
44989;SDS011;30723;51.206;3.326;2023-03-01T14:33:18;8.48;;;4.75;;
44989;SDS011;30723;51.206;3.326;2023-03-01T14:35:54;6.80;;;4.50;;
44989;SDS011;30723;51.206;3.326;2023-03-01T14:38:34;8.13;;;4.78;;
44989;SDS011;30723;51.206;3.326;2023-03-01T14:41:06;7.40;;;4.50;;
44989;SDS011;30723;51.206;3.326;2023-03-01T14:43:41;8.70;;;4.93;;
44989;SDS011;30723;51.206;3.326;2023-03-01T14:46:17;5.88;;;4.65;;
44989;SDS011;30723;51.206;3.326;2023-03-01T14:48:53;5.68;;;4.40;;
44989;SDS011;30723;51.206;3.326;2023-03-01T14:51:54;7.10;;;4.78;;
44989;SDS011;30723;51.206;3.326;2023-03-01T14:54:27;7.00;;;5.03;;
44989;SDS011;30723;51.206;3.326;2023-03-01T14:56:59;9.88;;;4.65;;
44989;SDS011;30723;51.206;3.326;2023-03-01T14:59:26;7.22;;;4.90;;
44989;SDS011;30723;51.206;3.326;2023-03-01T15:01:55;6.00;;;4.80;;
44989;SDS011;30723;51.206;3.326;2023-03-01T15:04:23;6.35;;;5.03;;
44989;SDS011;30723;51.206;3.326;2023-03-01T15:06:51;6.47;;;4.72;;
44989;SDS011;30723;51.206;3.326;2023-03-01T15:09:21;8.73;;;5.00;;
44989;SDS011;30723;51.206;3.326;2023-03-01T15:11:48;5.25;;;4.43;;
44989;SDS011;30723;51.206;3.326;2023-03-01T15:14:29;7.15;;;5.00;;
44989;SDS011;30723;51.206;3.326;2023-03-01T15:19:58;7.28;;;4.80;;
44989;SDS011;30723;51.206;3.326;2023-03-01T15:22:26;5.63;;;4.93;;
44989;SDS011;30723;51.206;3.326;2023-03-01T15:24:53;10.23;;;5.43;;
44989;SDS011;30723;51.206;3.326;2023-03-01T15:27:21;7.03;;;4.88;;
44989;SDS011;30723;51.206;3.326;2023-03-01T15:29:56;5.95;;;4.75;;
44989;SDS011;30723;51.206;3.326;2023-03-01T15:34:53;6.40;;;5.13;;
44989;SDS011;30723;51.206;3.326;2023-03-01T15:40:22;10.73;;;5.90;;
44989;SDS011;30723;51.206;3.326;2023-03-01T15:43:04;9.32;;;4.82;;
44989;SDS011;30723;51.206;3.326;2023-03-01T15:45:32;9.77;;;5.03;;
44989;SDS011;30723;51.206;3.326;2023-03-01T15:48:13;15.32;;;4.85;;
44989;SDS011;30723;51.206;3.326;2023-03-01T15:50:42;7.65;;;4.90;;
44989;SDS011;30723;51.206;3.326;2023-03-01T15:53:19;5.85;;;4.47;;
44989;SDS011;30723;51.206;3.326;2023-03-01T15:55:45;10.70;;;5.53;;
44989;SDS011;30723;51.206;3.326;2023-03-01T15:58:16;6.20;;;4.82;;
44989;SDS011;30723;51.206;3.326;2023-03-01T16:00:47;8.18;;;5.00;;
44989;SDS011;30723;51.206;3.326;2023-03-01T16:03:16;8.05;;;5.63;;
44989;SDS011;30723;51.206;3.326;2023-03-01T16:05:46;7.32;;;5.07;;
44989;SDS011;30723;51.206;3.326;2023-03-01T16:08:14;9.13;;;5.38;;
44989;SDS011;30723;51.206;3.326;2023-03-01T16:10:41;11.55;;;5.15;;
44989;SDS011;30723;51.206;3.326;2023-03-01T16:13:10;7.32;;;5.28;;
44989;SDS011;30723;51.206;3.326;2023-03-01T16:15:37;6.45;;;5.47;;
44989;SDS011;30723;51.206;3.326;2023-03-01T16:18:05;7.13;;;5.07;;
44989;SDS011;30723;51.206;3.326;2023-03-01T16:20:33;10.70;;;5.82;;
44989;SDS011;30723;51.206;3.326;2023-03-01T16:23:00;7.47;;;5.22;;
44989;SDS011;30723;51.206;3.326;2023-03-01T16:25:28;10.25;;;6.32;;
44989;SDS011;30723;51.206;3.326;2023-03-01T16:27:57;10.23;;;6.13;;
44989;SDS011;30723;51.206;3.326;2023-03-01T16:30:26;14.75;;;5.95;;
44989;SDS011;30723;51.206;3.326;2023-03-01T16:32:52;9.23;;;5.20;;
44989;SDS011;30723;51.206;3.326;2023-03-01T16:35:20;17.15;;;6.35;;
44989;SDS011;30723;51.206;3.326;2023-03-01T16:37:47;10.57;;;5.97;;
44989;SDS011;30723;51.206;3.326;2023-03-01T16:42:46;7.15;;;6.13;;
44989;SDS011;30723;51.206;3.326;2023-03-01T16:45:15;8.15;;;5.68;;
44989;SDS011;30723;51.206;3.326;2023-03-01T16:47:42;13.50;;;6.00;;
44989;SDS011;30723;51.206;3.326;2023-03-01T16:50:09;7.07;;;5.38;;
44989;SDS011;30723;51.206;3.326;2023-03-01T16:52:37;8.85;;;5.60;;
44989;SDS011;30723;51.206;3.326;2023-03-01T16:55:04;10.13;;;6.32;;
44989;SDS011;30723;51.206;3.326;2023-03-01T16:57:35;7.95;;;5.97;;
44989;SDS011;30723;51.206;3.326;2023-03-01T17:00:03;9.35;;;6.13;;
44989;SDS011;30723;51.206;3.326;2023-03-01T17:02:33;11.63;;;7.07;;
44989;SDS011;30723;51.206;3.326;2023-03-01T17:05:00;7.60;;;5.60;;
44989;SDS011;30723;51.206;3.326;2023-03-01T17:07:28;9.25;;;6.70;;
44989;SDS011;30723;51.206;3.326;2023-03-01T17:09:58;11.80;;;7.40;;
44989;SDS011;30723;51.206;3.326;2023-03-01T17:12:25;9.88;;;7.55;;
44989;SDS011;30723;51.206;3.326;2023-03-01T17:14:52;15.15;;;8.55;;
44989;SDS011;30723;51.206;3.326;2023-03-01T17:17:19;16.23;;;9.35;;
44989;SDS011;30723;51.206;3.326;2023-03-01T17:19:44;13.90;;;8.85;;